createdAt,value
2018-04-22T00:00:12.772Z,42.92
2018-04-22T00:01:12.502Z,42.64
2018-04-22T00:02:12.753Z,42.92
2018-04-22T00:03:12.753Z,43.21
2018-04-22T00:04:12.733Z,43.21
2018-04-22T00:05:12.718Z,43.4
2018-04-22T00:06:12.721Z,43.3
2018-04-22T00:07:12.445Z,43.11
2018-04-22T00:08:12.695Z,42.54
2018-04-22T00:09:12.687Z,42.25
2018-04-22T00:10:12.690Z,41.02
2018-04-22T00:11:12.410Z,39.69
2018-04-22T00:12:12.399Z,39.02
2018-04-22T00:13:12.652Z,38.92
2018-04-22T00:14:12.382Z,39.69
2018-04-22T00:15:12.631Z,40.35
2018-04-22T00:16:12.364Z,40.45
2018-04-22T00:17:12.355Z,40.06
2018-04-22T00:18:12.608Z,39.59
2018-04-22T00:19:12.593Z,39.31
2018-04-22T00:20:12.327Z,38.83
2018-04-22T00:21:12.576Z,38.92
2018-04-22T00:22:12.572Z,39.5
2018-04-22T00:23:12.304Z,40.73
2018-04-22T00:24:12.547Z,41.78
2018-04-22T00:25:12.541Z,42.54
2018-04-22T00:26:12.535Z,43.21
2018-04-22T00:27:12.527Z,43.87
2018-04-22T00:28:12.510Z,43.59
2018-04-22T00:29:12.504Z,42.73
2018-04-22T00:30:12.497Z,41.3
2018-04-22T00:31:12.481Z,40.54
2018-04-22T00:32:12.485Z,39.59
2018-04-22T00:33:12.466Z,38.45
2018-04-22T00:34:12.456Z,37.59
2018-04-22T00:35:12.452Z,36.35
2018-04-22T00:36:12.436Z,35.97
2018-04-22T00:37:12.172Z,36.07
2018-04-22T00:38:12.162Z,36.26
2018-04-22T00:39:12.409Z,37.21
2018-04-22T00:40:12.142Z,37.12
2018-04-22T00:41:12.132Z,38.07
2018-04-22T00:42:12.123Z,38.83
2018-04-22T00:43:12.119Z,39.5
2018-04-22T00:44:12.364Z,39.69
2018-04-22T00:45:12.353Z,39.78
2018-04-22T00:46:12.089Z,40.06
2018-04-22T00:47:12.334Z,39.97
2018-04-22T00:48:12.349Z,39.5
2018-04-22T00:49:12.318Z,38.35
2018-04-22T00:50:12.313Z,37.49
2018-04-22T00:51:12.298Z,37.49
2018-04-22T00:52:12.031Z,37.12
2018-04-22T00:53:12.022Z,37.02
2018-04-22T00:54:12.273Z,37.12
2018-04-22T00:55:12.264Z,36.45
2018-04-22T00:56:11.999Z,36.26
2018-04-22T00:57:12.243Z,35.78
2018-04-22T00:58:12.236Z,35.69
2018-04-22T00:59:11.969Z,35.88
2018-04-22T01:00:11.959Z,35.97
2018-04-22T01:01:11.948Z,35.88
2018-04-22T01:02:12.194Z,36.07
2018-04-22T01:03:11.931Z,36.55
2018-04-22T01:04:12.181Z,36.35
2018-04-22T01:05:12.165Z,36.16
2018-04-22T01:06:12.156Z,36.16
2018-04-22T01:07:12.149Z,36.64
2018-04-22T01:08:11.881Z,37.59
2018-04-22T01:09:11.873Z,38.45
2018-04-22T01:10:11.863Z,39.02
2018-04-22T01:11:11.854Z,38.83
2018-04-22T01:12:12.108Z,38.64
2018-04-22T01:13:12.131Z,37.97
2018-04-22T01:14:12.085Z,36.93
2018-04-22T01:15:11.817Z,35.97
2018-04-22T01:16:12.062Z,34.74
2018-04-22T01:17:11.796Z,34.26
2018-04-22T01:18:11.791Z,33.4
2018-04-22T01:19:12.036Z,32.83
2018-04-22T01:20:12.034Z,32.35
2018-04-22T01:21:11.763Z,32.07
2018-04-22T01:22:12.008Z,31.98
2018-04-22T01:23:11.741Z,32.45
2018-04-22T01:24:12.000Z,32.35
2018-04-22T01:25:11.725Z,32.45
2018-04-22T01:26:11.970Z,32.64
2018-04-22T01:27:11.969Z,32.93
2018-04-22T01:28:11.954Z,33.12
2018-04-22T01:29:11.947Z,33.4
2018-04-22T01:30:11.932Z,34.07
2018-04-22T01:31:11.935Z,33.97
2018-04-22T01:32:11.916Z,34.45
2018-04-22T01:33:11.648Z,35.12
2018-04-22T01:34:11.895Z,35.78
2018-04-22T01:35:11.888Z,36.24
2018-04-22T01:36:11.876Z,37
2018-04-22T01:37:11.870Z,37.86
2018-04-22T01:38:11.860Z,38.71
2018-04-22T01:39:11.849Z,39.48
2018-04-22T01:40:11.583Z,39.76
2018-04-22T01:41:11.850Z,39.57
2018-04-22T01:42:11.819Z,38.34
2018-04-22T01:43:11.814Z,36.72
2018-04-22T01:44:11.802Z,36.05
2018-04-22T01:45:11.534Z,35.58
2018-04-22T01:46:11.790Z,35.96
2018-04-22T01:47:11.773Z,36.15
2018-04-22T01:48:11.511Z,36.53
2018-04-22T01:49:11.756Z,36.62
2018-04-22T01:50:11.743Z,37.38
2018-04-22T01:51:11.735Z,38.24
2018-04-22T01:52:11.723Z,38.24
2018-04-22T01:53:11.457Z,37.86
2018-04-22T01:54:11.704Z,37.67
2018-04-22T01:55:11.697Z,36.72
2018-04-22T01:56:11.428Z,35.96
2018-04-22T01:57:11.675Z,35.48
2018-04-22T01:58:11.666Z,34.91
2018-04-22T01:59:11.655Z,34.44
2018-04-22T02:00:11.389Z,33.39
2018-04-22T02:01:11.634Z,32.91
2018-04-22T02:02:11.628Z,31.96
2018-04-22T02:03:11.619Z,32.34
2018-04-22T02:04:11.608Z,32.43
2018-04-22T02:05:11.594Z,32.53
2018-04-22T02:06:11.586Z,32.53
2018-04-22T02:07:11.578Z,32.53
2018-04-22T02:08:11.566Z,31.96
2018-04-22T02:09:11.557Z,31.39
2018-04-22T02:10:11.546Z,30.73
2018-04-22T02:11:11.538Z,30.25
2018-04-22T02:12:11.269Z,29.58
2018-04-22T02:13:11.517Z,29.2
2018-04-22T02:14:11.246Z,28.72
2018-04-22T02:15:11.236Z,28.06
2018-04-22T02:16:11.491Z,27.58
2018-04-22T02:17:11.219Z,27.78
2018-04-22T02:18:11.474Z,28.06
2018-04-22T02:19:11.200Z,27.78
2018-04-22T02:20:11.193Z,26.82
2018-04-22T02:21:11.436Z,26.25
2018-04-22T02:22:11.171Z,26.25
2018-04-22T02:23:11.159Z,26.16
2018-04-22T02:24:11.409Z,26.24
2018-04-22T02:25:11.396Z,26.43
2018-04-22T02:26:11.386Z,26.72
2018-04-22T02:27:11.439Z,27.38
2018-04-22T02:28:11.378Z,27.38
2018-04-22T02:29:11.364Z,27.67
2018-04-22T02:30:11.091Z,28.05
2018-04-22T02:31:11.341Z,28.23
2018-04-22T02:32:11.337Z,28.14
2018-04-22T02:33:11.061Z,28.23
2018-04-22T02:34:11.052Z,27.38
2018-04-22T02:35:11.040Z,25.95
2018-04-22T02:36:11.292Z,24.81
2018-04-22T02:37:11.284Z,24.54
2018-04-22T02:38:11.025Z,23.77
2018-04-22T02:39:11.263Z,23.2
2018-04-22T02:40:11.244Z,22.91
2018-04-22T02:41:11.241Z,22.25
2018-04-22T02:42:11.235Z,22.34
2018-04-22T02:43:10.960Z,22.53
2018-04-22T02:44:11.216Z,22.53
2018-04-22T02:45:11.227Z,22.15
2018-04-22T02:46:10.929Z,20.92
2018-04-22T02:47:11.205Z,20.36
2018-04-22T02:48:11.178Z,20.07
2018-04-22T02:49:11.156Z,19.49
2018-04-22T02:50:11.157Z,19.3
2018-04-22T02:51:11.144Z,18.92
2018-04-22T02:52:11.132Z,18.73
2018-04-22T02:53:11.116Z,18.82
2018-04-22T02:54:11.109Z,18.35
2018-04-22T02:55:10.837Z,18.26
2018-04-22T02:56:11.088Z,18.55
2018-04-22T02:57:11.075Z,18.55
2018-04-22T02:58:11.069Z,18.82
2018-04-22T02:59:11.053Z,18.64
2018-04-22T03:00:11.052Z,18.73
2018-04-22T03:01:11.039Z,18.82
2018-04-22T03:02:11.033Z,19.3
2018-04-22T03:03:11.015Z,19.59
2018-04-22T03:04:11.009Z,19.59
2018-04-22T03:05:10.994Z,19.39
2018-04-22T03:06:10.994Z,19.59
2018-04-22T03:07:10.976Z,19.39
2018-04-22T03:08:10.710Z,19.3
2018-04-22T03:09:10.697Z,19.2
2018-04-22T03:10:10.690Z,19.39
2018-04-22T03:11:10.937Z,19.3
2018-04-22T03:12:10.925Z,19.49
2018-04-22T03:13:10.919Z,19.87
2018-04-22T03:14:10.912Z,20.25
2018-04-22T03:15:10.900Z,20.25
2018-04-22T03:16:10.918Z,20.34
2018-04-22T03:17:10.890Z,20.34
2018-04-22T03:18:10.870Z,20.34
2018-04-22T03:19:10.599Z,19.88
2018-04-22T03:20:10.848Z,19.39
2018-04-22T03:21:10.833Z,19.11
2018-04-22T03:22:10.846Z,18.54
2018-04-22T03:23:10.817Z,18.16
2018-04-22T03:24:10.814Z,18.26
2018-04-22T03:25:10.795Z,18.55
2018-04-22T03:26:10.528Z,18.36
2018-04-22T03:27:10.519Z,17.97
2018-04-22T03:28:10.766Z,17.49
2018-04-22T03:29:10.758Z,16.92
2018-04-22T03:30:10.756Z,17.3
2018-04-22T03:31:10.735Z,16.74
2018-04-22T03:32:10.728Z,16.46
2018-04-22T03:33:10.713Z,16.25
2018-04-22T03:34:10.451Z,16.17
2018-04-22T03:35:10.698Z,16.35
2018-04-22T03:36:10.684Z,16.16
2018-04-22T03:37:10.682Z,15.5
2018-04-22T03:38:10.680Z,15.88
2018-04-22T03:39:10.657Z,15.97
2018-04-22T03:40:10.647Z,15.4
2018-04-22T03:41:10.634Z,15.11
2018-04-22T03:42:10.627Z,15.31
2018-04-22T03:43:10.617Z,15.02
2018-04-22T03:44:10.350Z,15.11
2018-04-22T03:45:10.599Z,14.84
2018-04-22T03:46:10.586Z,14.26
2018-04-22T03:47:10.582Z,14.65
2018-04-22T03:48:10.308Z,14.45
2018-04-22T03:49:10.556Z,14.07
2018-04-22T03:50:10.553Z,13.79
2018-04-22T03:51:10.538Z,13.41
2018-04-22T03:52:10.529Z,13.22
2018-04-22T03:53:10.332Z,12.93
2018-04-22T03:54:10.514Z,13.22
2018-04-22T03:55:10.500Z,13.12
2018-04-22T03:56:10.484Z,13.41
2018-04-22T03:57:10.476Z,12.93
2018-04-22T03:58:10.466Z,13.22
2018-04-22T03:59:10.462Z,13.41
2018-04-22T04:00:10.450Z,13.03
2018-04-22T04:01:10.340Z,12.93
2018-04-22T04:02:10.168Z,13.32
2018-04-22T04:03:10.572Z,13.41
2018-04-22T04:04:10.445Z,13.7
2018-04-22T04:05:10.178Z,14.26
2018-04-22T04:06:10.388Z,14.65
2018-04-22T04:07:10.378Z,15.31
2018-04-22T04:08:10.371Z,15.98
2018-04-22T04:09:10.365Z,15.6
2018-04-22T04:10:10.353Z,15.22
2018-04-22T04:11:10.337Z,15.22
2018-04-22T04:12:10.329Z,14.93
2018-04-22T04:13:10.061Z,15.12
2018-04-22T04:14:10.312Z,15.31
2018-04-22T04:15:10.300Z,15.12
2018-04-22T04:16:10.296Z,15.03
2018-04-22T04:17:10.284Z,14.93
2018-04-22T04:18:10.275Z,15.03
2018-04-22T04:19:10.002Z,15.22
2018-04-22T04:20:10.249Z,15.12
2018-04-22T04:21:10.241Z,15.31
2018-04-22T04:22:09.971Z,15.22
2018-04-22T04:23:10.222Z,15.03
2018-04-22T04:24:10.213Z,14.46
2018-04-22T04:25:09.945Z,13.7
2018-04-22T04:26:10.202Z,13.41
2018-04-22T04:27:10.185Z,13.32
2018-04-22T04:28:10.171Z,13.12
2018-04-22T04:29:10.162Z,12.93
2018-04-22T04:30:10.152Z,13.03
2018-04-22T04:31:10.140Z,12.93
2018-04-22T04:32:10.129Z,12.55
2018-04-22T04:33:09.865Z,12.46
2018-04-22T04:34:10.110Z,11.9
2018-04-22T04:35:10.111Z,11.8
2018-04-22T04:36:10.222Z,11.04
2018-04-22T04:37:10.084Z,10.18
2018-04-22T04:38:09.816Z,10.47
2018-04-22T04:39:09.807Z,10.37
2018-04-22T04:40:10.222Z,10.37
2018-04-22T04:41:10.157Z,10.56
2018-04-22T04:42:10.146Z,10.18
2018-04-22T04:43:10.176Z,9.89
2018-04-22T04:44:10.162Z,9.8
2018-04-22T04:45:10.162Z,9.7
2018-04-22T04:46:10.128Z,9.89
2018-04-22T04:47:10.064Z,9.99
2018-04-22T04:48:09.825Z,9.99
2018-04-22T04:49:10.085Z,10.18
2018-04-22T04:50:10.097Z,10.37
2018-04-22T04:51:10.102Z,10.75
2018-04-22T04:52:10.095Z,10.85
2018-04-22T04:53:10.102Z,11.33
2018-04-22T04:54:09.786Z,11.43
2018-04-22T04:55:09.917Z,11.61
2018-04-22T04:56:10.024Z,11.99
2018-04-22T04:57:10.069Z,12.09
2018-04-22T04:58:10.035Z,12.66
2018-04-22T04:59:09.879Z,13.33
2018-04-22T05:00:09.868Z,13.9
2018-04-22T05:01:09.860Z,14.57
2018-04-22T05:02:09.850Z,15.61
2018-04-22T05:03:09.838Z,15.52
2018-04-22T05:04:09.573Z,16.19
2018-04-22T05:05:09.819Z,17.04
2018-04-22T05:06:09.556Z,17.33
2018-04-22T05:07:09.807Z,17.72
2018-04-22T05:08:09.792Z,18.19
2018-04-22T05:09:09.787Z,18.77
2018-04-22T05:10:09.781Z,19.43
2018-04-22T05:11:09.766Z,19.43
2018-04-22T05:12:09.757Z,20.39
2018-04-22T05:13:09.490Z,20.67
2018-04-22T05:14:09.737Z,20.86
2018-04-22T05:15:09.733Z,21.62
2018-04-22T05:16:09.759Z,21.72
2018-04-22T05:17:09.713Z,22
2018-04-22T05:18:09.708Z,22.19
2018-04-22T05:19:09.437Z,23.05
2018-04-22T05:20:09.431Z,23.35
2018-04-22T05:21:09.738Z,23.83
2018-04-22T05:22:09.758Z,24.21
2018-04-22T05:23:09.720Z,24.59
2018-04-22T05:24:09.697Z,24.97
2018-04-22T05:25:09.699Z,25.45
2018-04-22T05:26:09.687Z,25.64
2018-04-22T05:27:09.679Z,26.4
2018-04-22T05:28:09.670Z,26.78
2018-04-22T05:29:09.662Z,27.36
2018-04-22T05:30:09.653Z,28.12
2018-04-22T05:31:09.667Z,28.5
2018-04-22T05:32:09.628Z,29.07
2018-04-22T05:33:09.366Z,29.55
2018-04-22T05:34:09.356Z,29.56
2018-04-22T05:35:09.344Z,30.13
2018-04-22T05:36:09.554Z,30.71
2018-04-22T05:37:09.543Z,31.18
2018-04-22T05:38:09.536Z,31.37
2018-04-22T05:39:09.532Z,31.47
2018-04-22T05:40:09.747Z,31.56
2018-04-22T05:41:09.519Z,31.47
2018-04-22T05:42:09.251Z,32.14
2018-04-22T05:43:09.502Z,33.37
2018-04-22T05:44:09.232Z,34.25
2018-04-22T05:45:09.481Z,34.82
2018-04-22T05:46:09.217Z,35.97
2018-04-22T05:47:09.464Z,36.54
2018-04-22T05:48:09.465Z,37.78
2018-04-22T05:49:09.452Z,38.26
2018-04-22T05:50:09.446Z,39.5
2018-04-22T05:51:09.655Z,40.36
2018-04-22T05:52:09.427Z,41.03
2018-04-22T05:53:09.464Z,41.69
2018-04-22T05:54:09.419Z,42.65
2018-04-22T05:55:09.151Z,42.86
2018-04-22T05:56:09.406Z,43.43
2018-04-22T05:57:09.404Z,44.29
2018-04-22T05:58:09.386Z,44.96
2018-04-22T05:59:09.379Z,45.53
2018-04-22T06:00:09.110Z,46.2
2018-04-22T06:01:09.364Z,47.63
2018-04-22T06:02:09.575Z,48.88
2018-04-22T06:03:09.091Z,48.97
2018-04-22T06:04:09.344Z,50.12
2018-04-22T06:05:09.343Z,51.09
2018-04-22T06:06:09.383Z,52.03
2018-04-22T06:07:09.423Z,52.62
2018-04-22T06:08:09.394Z,52.24
2018-04-22T06:09:09.063Z,53.49
2018-04-22T06:10:09.047Z,54.53
2018-04-22T06:11:09.296Z,55.01
2018-04-22T06:12:09.294Z,55.4
2018-04-22T06:13:09.022Z,56.35
2018-04-22T06:14:09.020Z,57.59
2018-04-22T06:15:09.274Z,59.12
2018-04-22T06:16:09.264Z,60.96
2018-04-22T06:17:08.998Z,61.16
2018-04-22T06:18:09.246Z,62.68
2018-04-22T06:19:09.242Z,62.97
2018-04-22T06:20:08.979Z,63.64
2018-04-22T06:21:08.975Z,64.5
2018-04-22T06:22:09.238Z,65.45
2018-04-22T06:23:08.961Z,66.13
2018-04-22T06:24:09.211Z,66.89
2018-04-22T06:25:09.206Z,67.18
2018-04-22T06:26:08.941Z,68.16
2018-04-22T06:27:09.290Z,68.93
2018-04-22T06:28:09.182Z,68.64
2018-04-22T06:29:08.932Z,68.45
2018-04-22T06:30:08.916Z,69.02
2018-04-22T06:31:09.174Z,69.98
2018-04-22T06:32:09.160Z,70.75
2018-04-22T06:33:09.152Z,70.94
2018-04-22T06:34:08.891Z,72.66
2018-04-22T06:35:08.884Z,73.14
2018-04-22T06:36:08.879Z,73.61
2018-04-22T06:37:09.136Z,74.19
2018-04-22T06:38:09.135Z,74.41
2018-04-22T06:39:09.121Z,74.9
2018-04-22T06:40:09.119Z,75.09
2018-04-22T06:41:09.113Z,76.71
2018-04-22T06:42:09.105Z,80.38
2018-04-22T06:43:09.096Z,85.12
2018-04-22T06:44:08.835Z,90.23
2018-04-22T06:45:09.090Z,94.45
2018-04-22T06:46:09.109Z,95.7
2018-04-22T06:47:08.818Z,96.8
2018-04-22T06:48:09.080Z,97.24
2018-04-22T06:49:09.069Z,97.38
2018-04-22T06:50:08.806Z,96.56
2018-04-22T06:51:09.078Z,95.89
2018-04-22T06:52:09.051Z,92.57
2018-04-22T06:53:09.052Z,86.3
2018-04-22T06:54:09.046Z,82.1
2018-04-22T06:55:09.045Z,78.91
2018-04-22T06:56:08.784Z,72.71
2018-04-22T06:57:09.037Z,70.42
2018-04-22T06:58:09.042Z,70.84
2018-04-22T06:59:09.033Z,66.14
2018-04-22T07:00:08.775Z,65.2
2018-04-22T07:01:08.777Z,63.53
2018-04-22T07:02:09.032Z,58.2
2018-04-22T07:03:08.773Z,55.93
2018-04-22T07:04:09.026Z,54.7
2018-04-22T07:05:09.041Z,52.76
2018-04-22T07:06:09.033Z,53.56
2018-04-22T07:07:08.777Z,49.8
2018-04-22T07:08:09.048Z,48.93
2018-04-22T07:09:09.037Z,46.91
2018-04-22T07:10:08.778Z,46.52
2018-04-22T07:11:09.032Z,46.74
2018-04-22T07:12:09.035Z,45.5
2018-04-22T07:13:09.042Z,44.72
2018-04-22T07:14:08.780Z,43.67
2018-04-22T07:15:09.051Z,42.21
2018-04-22T07:16:08.788Z,42.04
2018-04-22T07:17:09.051Z,42.53
2018-04-22T07:18:09.055Z,42.43
2018-04-22T07:19:09.063Z,43.81
2018-04-22T07:20:09.065Z,43.43
2018-04-22T07:21:09.058Z,40.33
2018-04-22T07:22:08.805Z,39.65
2018-04-22T07:23:08.811Z,40.62
2018-04-22T07:24:09.193Z,42.38
2018-04-22T07:25:09.082Z,38.09
2018-04-22T07:26:08.822Z,36.84
2018-04-22T07:27:09.101Z,34.89
2018-04-22T07:28:09.088Z,36.65
2018-04-22T07:29:09.092Z,36.65
2018-04-22T07:30:08.833Z,37.54
2018-04-22T07:31:09.097Z,39.1
2018-04-22T07:32:09.198Z,37.83
2018-04-22T07:33:08.844Z,36.86
2018-04-22T07:34:09.105Z,35.98
2018-04-22T07:35:09.110Z,35.1
2018-04-22T07:36:08.853Z,34.91
2018-04-22T07:37:08.859Z,36.06
2018-04-22T07:38:09.124Z,35.46
2018-04-22T07:39:08.864Z,38.65
2018-04-22T07:40:09.128Z,36.59
2018-04-22T07:41:08.872Z,43.75
2018-04-22T07:42:09.131Z,41.88
2018-04-22T07:43:08.877Z,41.45
2018-04-22T07:44:08.877Z,42.4
2018-04-22T07:45:08.880Z,42.29
2018-04-22T07:46:08.882Z,43.72
2018-04-22T07:47:09.148Z,45.13
2018-04-22T07:48:09.145Z,47.04
2018-04-22T07:49:08.891Z,48.47
2018-04-22T07:50:09.153Z,48.93
2018-04-22T07:51:09.150Z,53.25
2018-04-22T07:52:09.157Z,49.65
2018-04-22T07:53:09.161Z,52.23
2018-04-22T07:54:09.159Z,50.79
2018-04-22T07:55:09.165Z,52.4
2018-04-22T07:56:09.169Z,59.06
2018-04-22T07:57:09.165Z,51.8
2018-04-22T07:58:09.169Z,47.65
2018-04-22T07:59:09.171Z,51.87
2018-04-22T08:00:08.919Z,49.37
2018-04-22T08:01:09.168Z,49.27
2018-04-22T08:02:09.179Z,48.86
2018-04-22T08:03:08.918Z,55.22
2018-04-22T08:04:08.916Z,55.22
2018-04-22T08:05:09.177Z,53.61
2018-04-22T08:06:08.927Z,55.22
2018-04-22T08:07:08.921Z,52.33
2018-04-22T08:08:09.177Z,50.3
2018-04-22T08:09:09.274Z,50.13
2018-04-22T08:10:09.277Z,50.71
2018-04-22T08:11:09.286Z,50.04
2018-04-22T08:12:09.208Z,45.12
2018-04-22T08:13:08.923Z,44.13
2018-04-22T08:14:09.181Z,44.52
2018-04-22T08:15:09.182Z,44.23
2018-04-22T08:16:09.185Z,45.21
2018-04-22T08:17:09.183Z,44.73
2018-04-22T08:18:08.928Z,46.64
2018-04-22T08:19:09.193Z,50.62
2018-04-22T08:20:08.931Z,48.97
2018-04-22T08:21:09.190Z,45.89
2018-04-22T08:22:08.941Z,45.51
2018-04-22T08:23:09.188Z,48.28
2018-04-22T08:24:09.191Z,48.66
2018-04-22T08:25:09.190Z,46.66
2018-04-22T08:26:08.932Z,46.45
2018-04-22T08:27:09.193Z,46.93
2018-04-22T08:28:09.193Z,49.63
2018-04-22T08:29:09.191Z,55.51
2018-04-22T08:30:09.203Z,51.97
2018-04-22T08:31:09.201Z,51.65
2018-04-22T08:32:09.236Z,51.97
2018-04-22T08:33:09.194Z,51.84
2018-04-22T08:34:08.940Z,51.87
2018-04-22T08:35:09.201Z,53.51
2018-04-22T08:36:09.200Z,53.8
2018-04-22T08:37:09.199Z,53.61
2018-04-22T08:38:09.202Z,48.88
2018-04-22T08:39:08.943Z,51.29
2018-04-22T08:40:09.200Z,53.96
2018-04-22T08:41:08.937Z,50.23
2018-04-22T08:42:09.198Z,52.16
2018-04-22T08:43:09.197Z,51
2018-04-22T08:44:09.202Z,50.81
2018-04-22T08:45:09.203Z,53.22
2018-04-22T08:46:08.942Z,56.4
2018-04-22T08:47:09.201Z,56.33
2018-04-22T08:48:09.200Z,48.61
2018-04-22T08:49:09.201Z,45.7
2018-04-22T08:50:09.206Z,47.82
2018-04-22T08:51:09.210Z,47.27
2018-04-22T08:52:09.204Z,47.07
2018-04-22T08:53:09.200Z,46.01
2018-04-22T08:54:09.200Z,41.67
2018-04-22T08:55:09.204Z,41.38
2018-04-22T08:56:09.204Z,41.19
2018-04-22T08:57:08.945Z,40.22
2018-04-22T08:58:09.200Z,37.71
2018-04-22T08:59:08.947Z,38.29
2018-04-22T09:00:09.212Z,39.16
2018-04-22T09:01:08.952Z,40.9
2018-04-22T09:02:09.002Z,40.22
2018-04-22T09:03:09.217Z,40.51
2018-04-22T09:04:09.205Z,42.25
2018-04-22T09:05:08.952Z,43.5
2018-04-22T09:06:09.229Z,47.65
2018-04-22T09:07:09.210Z,47.75
2018-04-22T09:08:09.209Z,44.46
2018-04-22T09:09:08.953Z,44.66
2018-04-22T09:10:09.210Z,46.49
2018-04-22T09:11:09.207Z,45.26
2018-04-22T09:12:09.217Z,43.72
2018-04-22T09:13:09.211Z,47.09
2018-04-22T09:14:08.951Z,47.96
2018-04-22T09:15:09.214Z,46.81
2018-04-22T09:16:08.955Z,47.58
2018-04-22T09:17:08.953Z,45.17
2018-04-22T09:18:08.956Z,43.72
2018-04-22T09:19:09.218Z,43.72
2018-04-22T09:20:09.221Z,43.81
2018-04-22T09:21:09.213Z,44.29
2018-04-22T09:22:09.213Z,44.87
2018-04-22T09:23:08.961Z,43.33
2018-04-22T09:24:09.216Z,44.49
2018-04-22T09:25:08.960Z,45.36
2018-04-22T09:26:09.219Z,45.38
2018-04-22T09:27:09.220Z,48.76
2018-04-22T09:28:09.217Z,46.51
2018-04-22T09:29:09.236Z,45.38
2018-04-22T09:30:08.960Z,45.18
2018-04-22T09:31:08.964Z,45.84
2018-04-22T09:32:09.233Z,45.84
2018-04-22T09:33:08.969Z,44.49
2018-04-22T09:34:08.964Z,44.32
2018-04-22T09:35:08.971Z,43.72
2018-04-22T09:36:09.224Z,44.01
2018-04-22T09:37:09.226Z,45.84
2018-04-22T09:38:09.441Z,45.76
2018-04-22T09:39:09.223Z,45.48
2018-04-22T09:40:09.231Z,47.5
2018-04-22T09:41:09.224Z,47.5
2018-04-22T09:42:08.969Z,45.48
2018-04-22T09:43:09.264Z,46.54
2018-04-22T09:44:09.231Z,47.02
2018-04-22T09:45:09.248Z,46.92
2018-04-22T09:46:09.232Z,48.86
2018-04-22T09:47:09.235Z,49.44
2018-04-22T09:48:08.973Z,43.45
2018-04-22T09:49:08.978Z,48.18
2018-04-22T09:50:09.236Z,46.73
2018-04-22T09:51:08.977Z,45.57
2018-04-22T09:52:09.238Z,43.16
2018-04-22T09:53:09.237Z,42.1
2018-04-22T09:54:09.235Z,43.45
2018-04-22T09:55:09.248Z,45.96
2018-04-22T09:56:09.240Z,43.35
2018-04-22T09:57:08.980Z,43.84
2018-04-22T09:58:09.237Z,42.77
2018-04-22T09:59:08.982Z,43.74
2018-04-22T10:00:08.988Z,43.16
2018-04-22T10:01:09.243Z,42
2018-04-22T10:02:09.245Z,41.91
2018-04-22T10:03:08.986Z,43.26
2018-04-22T10:04:09.244Z,45.86
2018-04-22T10:05:09.251Z,44.63
2018-04-22T10:06:09.252Z,45.38
2018-04-22T10:07:09.250Z,47.5
2018-04-22T10:08:09.251Z,45.89
2018-04-22T10:09:09.251Z,47.14
2018-04-22T10:10:09.260Z,47.63
2018-04-22T10:11:08.996Z,46.95
2018-04-22T10:12:09.255Z,45.59
2018-04-22T10:13:09.284Z,45.4
2018-04-22T10:14:09.256Z,42.41
2018-04-22T10:15:09.000Z,44.24
2018-04-22T10:16:09.253Z,43.37
2018-04-22T10:17:09.255Z,42.99
2018-04-22T10:18:09.259Z,40.57
2018-04-22T10:19:09.258Z,41.83
2018-04-22T10:20:09.258Z,41.63
2018-04-22T10:21:09.265Z,42.02
2018-04-22T10:22:09.260Z,43.08
2018-04-22T10:23:09.262Z,41.83
2018-04-22T10:24:09.062Z,42.12
2018-04-22T10:25:09.273Z,43.28
2018-04-22T10:26:09.266Z,43.28
2018-04-22T10:27:09.267Z,47.53
2018-04-22T10:28:09.014Z,43.28
2018-04-22T10:29:09.271Z,42.79
2018-04-22T10:30:09.268Z,43.26
2018-04-22T10:31:09.273Z,42.77
2018-04-22T10:32:09.280Z,41.05
2018-04-22T10:33:09.272Z,38.53
2018-04-22T10:34:09.015Z,39.41
2018-04-22T10:35:09.280Z,38.45
2018-04-22T10:36:09.360Z,38.04
2018-04-22T10:37:09.280Z,38.91
2018-04-22T10:38:09.296Z,39.9
2018-04-22T10:39:09.291Z,42.1
2018-04-22T10:40:09.352Z,40.45
2018-04-22T10:41:09.282Z,40.07
2018-04-22T10:42:09.283Z,40.55
2018-04-22T10:43:09.286Z,43.26
2018-04-22T10:44:09.283Z,41.73
2018-04-22T10:45:09.288Z,39.32
2018-04-22T10:46:09.286Z,39.97
2018-04-22T10:47:09.288Z,38.33
2018-04-22T10:48:09.033Z,38.25
2018-04-22T10:49:09.034Z,40.28
2018-04-22T10:50:09.290Z,39.22
2018-04-22T10:51:09.035Z,39.97
2018-04-22T10:52:09.300Z,41.33
2018-04-22T10:53:09.296Z,40.75
2018-04-22T10:54:09.297Z,41.13
2018-04-22T10:55:09.041Z,41.15
2018-04-22T10:56:09.297Z,41.73
2018-04-22T10:57:09.304Z,43.57
2018-04-22T10:58:09.421Z,40.96
2018-04-22T10:59:09.355Z,40.86
2018-04-22T11:00:09.301Z,41.63
2018-04-22T11:01:09.136Z,41.73
2018-04-22T11:02:09.113Z,42.31
2018-04-22T11:03:09.396Z,42.79
2018-04-22T11:04:09.153Z,46.85
2018-04-22T11:05:09.599Z,43.85
2018-04-22T11:06:09.371Z,43.4
2018-04-22T11:07:09.057Z,43.4
2018-04-22T11:08:09.319Z,44.53
2018-04-22T11:09:09.314Z,44.43
2018-04-22T11:10:09.320Z,43.28
2018-04-22T11:11:09.328Z,43.2
2018-04-22T11:12:09.320Z,43.2
2018-04-22T11:13:09.317Z,43.4
2018-04-22T11:14:09.320Z,43.3
2018-04-22T11:15:09.324Z,44.36
2018-04-22T11:16:09.062Z,46.39
2018-04-22T11:17:09.068Z,43.1
2018-04-22T11:18:09.066Z,41.75
2018-04-22T11:19:09.068Z,39.24
2018-04-22T11:20:09.327Z,40.2
2018-04-22T11:21:09.371Z,44.26
2018-04-22T11:22:09.359Z,43.01
2018-04-22T11:23:09.073Z,41.56
2018-04-22T11:24:09.338Z,40.78
2018-04-22T11:25:09.076Z,45.23
2018-04-22T11:26:09.354Z,42.91
2018-04-22T11:27:09.343Z,40.98
2018-04-22T11:28:09.340Z,41.66
2018-04-22T11:29:09.349Z,42.33
2018-04-22T11:30:09.083Z,41.94
2018-04-22T11:31:09.342Z,41.85
2018-04-22T11:32:09.102Z,40.78
2018-04-22T11:33:09.176Z,43.49
2018-04-22T11:34:09.349Z,42.72
2018-04-22T11:35:09.349Z,41.17
2018-04-22T11:36:09.091Z,40.11
2018-04-22T11:37:09.353Z,40.67
2018-04-22T11:38:09.351Z,41.46
2018-04-22T11:39:09.098Z,43.95
2018-04-22T11:40:09.356Z,42.6
2018-04-22T11:41:09.103Z,44.34
2018-04-22T11:42:09.365Z,44.82
2018-04-22T11:43:09.381Z,41.44
2018-04-22T11:44:09.361Z,40.77
2018-04-22T11:45:09.108Z,41.25
2018-04-22T11:46:09.106Z,40.96
2018-04-22T11:47:09.108Z,44.12
2018-04-22T11:48:09.370Z,43.85
2018-04-22T11:49:09.367Z,42.31
2018-04-22T11:50:09.372Z,40.77
2018-04-22T11:51:09.369Z,43.47
2018-04-22T11:52:09.117Z,42.6
2018-04-22T11:53:09.377Z,42.89
2018-04-22T11:54:09.118Z,42.6
2018-04-22T11:55:09.375Z,40.38
2018-04-22T11:56:09.383Z,40.96
2018-04-22T11:57:09.382Z,40.86
2018-04-22T11:58:09.386Z,39.51
2018-04-22T11:59:09.384Z,42.21
2018-04-22T12:00:09.518Z,40.96
2018-04-22T12:01:09.393Z,40.86
2018-04-22T12:02:09.130Z,42.79
2018-04-22T12:03:09.132Z,44.15
2018-04-22T12:04:09.390Z,41.85
2018-04-22T12:05:09.413Z,40.4
2018-04-22T12:06:09.394Z,40.01
2018-04-22T12:07:09.133Z,41.56
2018-04-22T12:08:09.397Z,41.27
2018-04-22T12:09:09.139Z,38.37
2018-04-22T12:10:09.396Z,39.14
2018-04-22T12:11:09.143Z,40.4
2018-04-22T12:12:09.143Z,40.78
2018-04-22T12:13:09.147Z,39.82
2018-04-22T12:14:09.421Z,41.27
2018-04-22T12:15:09.406Z,38.95
2018-04-22T12:16:09.405Z,37.79
2018-04-22T12:17:09.417Z,38.18
2018-04-22T12:18:09.512Z,37.7
2018-04-22T12:19:09.153Z,39.32
2018-04-22T12:20:09.411Z,39.61
2018-04-22T12:21:09.415Z,43.18
2018-04-22T12:22:09.486Z,40.86
2018-04-22T12:23:09.159Z,40.47
2018-04-22T12:24:09.418Z,42.21
2018-04-22T12:25:09.428Z,39.51
2018-04-22T12:26:09.422Z,38.16
2018-04-22T12:27:09.425Z,38.37
2018-04-22T12:28:09.168Z,37.88
2018-04-22T12:29:09.171Z,37.02
2018-04-22T12:30:09.438Z,36.32
2018-04-22T12:31:09.435Z,36.22
2018-04-22T12:32:09.433Z,38.06
2018-04-22T12:33:09.433Z,42.41
2018-04-22T12:34:09.435Z,39.8
2018-04-22T12:35:09.443Z,38.37
2018-04-22T12:36:09.438Z,38.37
2018-04-22T12:37:09.440Z,39.12
2018-04-22T12:38:09.194Z,38.85
2018-04-22T12:39:09.446Z,37.98
2018-04-22T12:40:09.443Z,38.83
2018-04-22T12:41:09.190Z,41.25
2018-04-22T12:42:09.447Z,39.92
2018-04-22T12:43:09.450Z,40.28
2018-04-22T12:44:09.454Z,40.3
2018-04-22T12:45:09.259Z,40.4
2018-04-22T12:46:09.480Z,38.95
2018-04-22T12:47:09.459Z,38.37
2018-04-22T12:48:09.456Z,35.57
2018-04-22T12:49:09.202Z,37.12
2018-04-22T12:50:09.459Z,38.25
2018-04-22T12:51:09.464Z,38.74
2018-04-22T12:52:09.207Z,40.47
2018-04-22T12:53:09.462Z,40.28
2018-04-22T12:54:09.469Z,43.18
2018-04-22T12:55:09.209Z,44.56